Time;durP1;ratioP1;P1;durP2;ratioP2;P2;SDS_P1;SDS_P2;PMS_P1;PMS_P2;Temp;Humidity;BMP_temperature;BMP_pressure;BME280_temperature;BME280_humidity;BME280_pressure;Samples;Min_cycle;Max_cycle;Signal;HPM_P1;HPM_P2
2023/07/21 00:00:17;;;;;;;0.10;0.10;;;;;;;17.16;59.15;101039.81;7355538;19;20030;-61
2023/07/21 00:02:43;;;;;;;0.00;0.00;;;;;;;16.96;59.10;101009.03;7356707;19;20014;-60
2023/07/21 00:05:09;;;;;;;0.10;0.10;;;;;;;17.10;58.99;101033.03;7351580;19;20724;-61
2023/07/21 00:07:35;;;;;;;0.10;0.10;;;;;;;17.07;59.23;101033.16;7354926;19;20018;-61
2023/07/21 00:10:07;;;;;;;0.05;0.05;;;;;;;17.05;58.94;101027.09;7354517;19;20747;-61
2023/07/21 00:12:49;;;;;;;0.10;0.10;;;;;;;17.04;58.28;101030.69;7359748;19;20007;-60
2023/07/21 00:15:17;;;;;;;0.00;0.00;;;;;;;16.96;58.86;101038.91;7352836;19;20002;-60
2023/07/21 00:17:43;;;;;;;;;;;;;;;16.98;57.47;101031.81;7357332;19;20006;-60
2023/07/21 00:20:14;;;;;;;0.00;0.00;;;;;;;16.83;58.79;101017.50;7358241;19;19933;-60
2023/07/21 00:22:40;;;;;;;0.10;0.10;;;;;;;16.89;59.23;101031.34;7353523;19;20022;-60
2023/07/21 00:25:06;;;;;;;0.10;0.10;;;;;;;16.85;59.19;101030.63;7354393;19;20035;-60
2023/07/21 00:27:32;;;;;;;0.10;0.10;;;;;;;16.83;59.51;101037.75;7356267;19;20417;-60
2023/07/21 00:29:58;;;;;;;0.05;0.05;;;;;;;16.80;59.42;101033.47;7356387;19;20014;-60
2023/07/21 00:32:23;;;;;;;0.10;0.10;;;;;;;16.75;59.34;101019.63;7355839;19;20016;-60
2023/07/21 00:34:51;;;;;;;0.08;0.08;;;;;;;16.76;59.25;101026.59;7352426;19;20367;-60
2023/07/21 00:37:17;;;;;;;0.00;0.00;;;;;;;16.74;59.19;101028.44;7354044;19;20097;-60
2023/07/21 00:39:44;;;;;;;0.10;0.10;;;;;;;16.73;59.65;101033.81;7356761;19;20090;-60
2023/07/21 00:42:10;;;;;;;0.10;0.10;;;;;;;16.60;59.19;101021.09;7346670;19;20033;-60
2023/07/21 00:44:36;;;;;;;0.05;0.05;;;;;;;16.68;59.34;101039.25;7358033;19;20010;-59
2023/07/21 00:47:02;;;;;;;0.00;0.00;;;;;;;16.64;59.05;101032.38;7352656;19;20006;-60
2023/07/21 00:49:28;;;;;;;0.03;0.03;;;;;;;16.66;59.32;101035.78;7358007;19;20026;-60
2023/07/21 00:51:53;;;;;;;0.10;0.10;;;;;;;16.64;59.47;101034.16;7354113;19;20941;-60
2023/07/21 00:54:20;;;;;;;0.00;0.00;;;;;;;16.61;59.37;101033.34;7357972;19;20027;-60
2023/07/21 00:56:45;;;;;;;0.10;0.10;;;;;;;16.58;59.52;101033.50;7354151;19;20021;-60
2023/07/21 00:59:11;;;;;;;0.00;0.00;;;;;;;16.55;59.43;101024.84;7355564;19;20423;-60
2023/07/21 01:01:36;;;;;;;0.10;0.10;;;;;;;16.52;59.54;101023.19;7345454;19;20050;-60
2023/07/21 01:04:03;;;;;;;0.10;0.10;;;;;;;16.51;59.56;101031.16;7356450;19;20002;-60
2023/07/21 01:06:30;;;;;;;0.10;0.10;;;;;;;16.47;60.01;101024.31;7346653;19;20038;-60
2023/07/21 01:08:58;;;;;;;0.00;0.00;;;;;;;16.48;59.62;101026.88;7358623;19;20098;-60
2023/07/21 01:11:24;;;;;;;0.00;0.00;;;;;;;16.47;59.53;101024.31;7351368;19;20023;-60
2023/07/21 01:13:53;;;;;;;0.00;0.00;;;;;;;16.47;59.76;101025.16;7352320;19;20063;-60
2023/07/21 01:16:22;;;;;;;0.00;0.00;;;;;;;16.42;60.02;101018.38;7352500;19;20514;-60
2023/07/21 01:18:50;;;;;;;0.10;0.10;;;;;;;16.44;59.97;101019.19;7355706;19;20011;-60
2023/07/21 01:21:37;;;;;;;0.05;0.05;;;;;;;16.43;59.52;101026.22;7354335;19;20059;-61
2023/07/21 01:24:16;;;;;;;0.10;0.10;;;;;;;16.02;59.18;100962.06;7353858;19;20102;-59
2023/07/21 01:26:43;;;;;;;0.00;0.00;;;;;;;16.37;59.94;101029.09;7352116;19;20046;-60
2023/07/21 01:29:09;;;;;;;0.10;0.10;;;;;;;16.35;60.06;101020.41;7353097;19;20031;-60
2023/07/21 01:31:37;;;;;;;0.00;0.00;;;;;;;16.32;59.87;101023.16;7351278;19;20052;-60
2023/07/21 01:34:04;;;;;;;0.00;0.00;;;;;;;16.30;59.71;101022.38;7353962;19;20027;-60
2023/07/21 01:36:30;;;;;;;0.10;0.10;;;;;;;16.24;60.06;101017.38;7355520;19;20029;-59
2023/07/21 01:38:57;;;;;;;0.00;0.00;;;;;;;16.24;60.11;101028.75;7351909;19;20013;-60
2023/07/21 01:41:23;;;;;;;0.03;0.03;;;;;;;16.10;60.49;101012.66;7354203;19;20053;-59
2023/07/21 01:43:49;;;;;;;0.10;0.10;;;;;;;16.19;60.45;101022.81;7352613;19;20023;-59
2023/07/21 01:46:15;;;;;;;0.00;0.00;;;;;;;16.16;59.98;101020.28;7354304;19;20026;-59
2023/07/21 01:48:41;;;;;;;0.00;0.00;;;;;;;16.09;60.43;101016.22;7354778;19;20033;-59
2023/07/21 01:51:07;;;;;;;0.00;0.00;;;;;;;15.98;60.15;100994.72;7352182;19;20018;-59
2023/07/21 01:53:35;;;;;;;0.10;0.10;;;;;;;16.10;60.33;101015.28;7353566;19;20041;-60
2023/07/21 01:56:20;;;;;;;0.00;0.00;;;;;;;16.08;59.33;101011.88;7349333;19;20011;-59
2023/07/21 01:58:47;;;;;;;0.10;0.10;;;;;;;15.98;60.64;101007.88;7348443;19;20010;-60
2023/07/21 02:01:14;;;;;;;0.10;0.10;;;;;;;15.99;60.58;101007.81;7354762;19;20031;-60
2023/07/21 02:03:40;;;;;;;0.00;0.00;;;;;;;15.96;60.35;101007.94;7350011;19;20031;-60
2023/07/21 02:06:13;;;;;;;0.10;0.10;;;;;;;15.86;59.70;100989.91;7350973;19;20022;-59
2023/07/21 02:08:39;;;;;;;0.00;0.00;;;;;;;15.91;60.79;101006.41;7351575;19;20011;-60
2023/07/21 02:11:04;;;;;;;0.00;0.00;;;;;;;15.72;60.82;100978.19;7350033;19;20006;-59
2023/07/21 02:13:31;;;;;;;0.10;0.10;;;;;;;15.85;60.59;101009.28;7349565;19;20006;-60
2023/07/21 02:15:56;;;;;;;0.00;0.00;;;;;;;15.81;60.61;100998.91;7353992;19;20755;-60
2023/07/21 02:18:22;;;;;;;0.08;0.08;;;;;;;15.71;60.80;100987.00;7350583;19;20094;-60
2023/07/21 02:20:47;;;;;;;0.10;0.10;;;;;;;15.74;60.89;100992.13;7353831;19;20034;-59
2023/07/21 02:23:13;;;;;;;0.00;0.00;;;;;;;15.72;61.23;100991.34;7356313;19;20329;-60
2023/07/21 02:25:41;;;;;;;0.10;0.10;;;;;;;15.68;61.16;100992.38;7361033;19;20037;-60
2023/07/21 02:28:08;;;;;;;0.10;0.10;;;;;;;15.65;61.27;100989.84;7356838;19;20018;-60
2023/07/21 02:30:33;;;;;;;0.00;0.00;;;;;;;15.63;61.17;100994.34;7359654;19;20022;-60
2023/07/21 02:32:59;;;;;;;0.00;0.00;;;;;;;15.59;61.35;100987.44;7353283;19;20022;-59
2023/07/21 02:35:25;;;;;;;0.08;0.08;;;;;;;15.54;61.70;100984.13;7356028;19;20015;-59
2023/07/21 02:37:50;;;;;;;0.10;0.10;;;;;;;15.53;62.01;100987.69;7359823;19;20060;-60
2023/07/21 02:40:18;;;;;;;0.00;0.00;;;;;;;15.50;62.06;100979.88;7360030;19;20014;-59
2023/07/21 02:42:43;;;;;;;0.08;0.08;;;;;;;15.47;61.90;100982.66;7356254;19;20027;-59
2023/07/21 02:45:09;;;;;;;0.00;0.00;;;;;;;15.46;62.30;100980.91;7360031;19;20122;-59
2023/07/21 02:47:34;;;;;;;0.00;0.00;;;;;;;15.44;62.36;100982.75;7350581;19;20073;-59
2023/07/21 02:50:00;;;;;;;0.10;0.10;;;;;;;15.41;62.11;100977.59;7357604;19;20699;-59
2023/07/21 02:52:27;;;;;;;0.00;0.00;;;;;;;15.31;62.37;100962.19;7353756;19;20006;-60
2023/07/21 02:54:53;;;;;;;0.00;0.00;;;;;;;15.32;62.36;100966.53;7359896;19;20037;-60
2023/07/21 02:57:19;;;;;;;0.05;0.05;;;;;;;15.37;62.63;100968.13;7354505;19;20339;-59
2023/07/21 02:59:46;;;;;;;0.03;0.03;;;;;;;15.34;62.46;100968.25;7358752;19;20021;-59
2023/07/21 03:02:11;;;;;;;0.10;0.10;;;;;;;15.35;62.75;100968.16;7355991;19;20868;-59
2023/07/21 03:04:37;;;;;;;0.10;0.10;;;;;;;15.27;62.78;100955.31;7359797;19;20022;-59
2023/07/21 03:07:04;;;;;;;0.10;0.10;;;;;;;15.32;62.44;100958.63;7357726;19;20842;-59
2023/07/21 03:09:29;;;;;;;0.10;0.10;;;;;;;15.31;62.68;100962.19;7357577;19;20042;-60
2023/07/21 03:11:56;;;;;;;0.00;0.00;;;;;;;15.31;62.64;100961.34;7358548;19;20609;-59
2023/07/21 03:14:24;;;;;;;0.10;0.10;;;;;;;15.32;62.90;100957.78;7353829;19;20047;-59
2023/07/21 03:16:49;;;;;;;0.00;0.00;;;;;;;15.30;62.80;100959.59;7356174;19;20006;-59
2023/07/21 03:19:15;;;;;;;0.10;0.10;;;;;;;15.24;62.86;100949.31;7335320;19;21300;-59
2023/07/21 03:21:42;;;;;;;0.00;0.00;;;;;;;15.26;62.84;100953.63;7350538;19;20029;-60
2023/07/21 03:24:24;;;;;;;0.10;0.10;;;;;;;15.28;61.60;100957.03;7353418;19;20271;-59
2023/07/21 03:26:50;;;;;;;0.10;0.10;;;;;;;15.25;63.10;100949.25;7352857;19;20453;-59
2023/07/21 03:29:18;;;;;;;0.03;0.03;;;;;;;15.21;63.05;100950.31;7352523;19;20014;-59
2023/07/21 03:31:44;;;;;;;0.10;0.10;;;;;;;15.23;63.42;100948.47;7349747;19;20509;-60
2023/07/21 03:34:09;;;;;;;0.03;0.03;;;;;;;15.23;63.32;100947.59;7354730;19;20003;-59
2023/07/21 03:36:35;;;;;;;0.00;0.00;;;;;;;15.21;63.24;100955.56;7356319;19;20006;-59
2023/07/21 03:39:00;;;;;;;0.10;0.10;;;;;;;15.22;63.26;100951.16;7351738;19;20077;-59
2023/07/21 03:41:26;;;;;;;0.00;0.00;;;;;;;15.21;63.60;100946.81;7353995;19;20010;-60
2023/07/21 03:43:51;;;;;;;0.00;0.00;;;;;;;15.15;63.71;100937.34;7356930;19;20017;-60
2023/07/21 03:46:16;;;;;;;0.00;0.00;;;;;;;15.19;63.71;100946.84;7354441;19;20018;-60
2023/07/21 03:48:43;;;;;;;0.00;0.00;;;;;;;15.14;63.42;100943.53;7354540;19;20359;-60
2023/07/21 03:51:08;;;;;;;0.00;0.00;;;;;;;15.18;63.41;100945.16;7353302;19;20118;-59
2023/07/21 03:53:34;;;;;;;0.00;0.00;;;;;;;15.15;63.37;100950.50;7354181;19;20014;-60
2023/07/21 03:56:02;;;;;;;0.10;0.10;;;;;;;15.16;63.38;100952.25;7352525;19;20010;-59
2023/07/21 03:58:27;;;;;;;0.00;0.00;;;;;;;15.15;63.59;100949.66;7352563;19;20003;-59
2023/07/21 04:00:55;;;;;;;0.03;0.03;;;;;;;15.08;63.57;100948.19;7355642;19;19998;-60
2023/07/21 04:03:20;;;;;;;0.00;0.00;;;;;;;15.10;63.78;100949.81;7352671;19;20355;-59
2023/07/21 04:05:48;;;;;;;0.08;0.08;;;;;;;15.09;63.55;100950.75;7356065;19;20026;-59
2023/07/21 04:08:13;;;;;;;;;;;;;;;15.11;61.24;100954.19;7354511;19;20045;-60
2023/07/21 04:10:43;;;;;;;0.00;0.00;;;;;;;15.05;63.80;100954.41;7355418;19;20725;-59
2023/07/21 04:13:11;;;;;;;0.00;0.00;;;;;;;15.01;63.40;100942.31;7351242;19;20556;-59
2023/07/21 04:15:37;;;;;;;0.00;0.00;;;;;;;15.02;63.83;100939.59;7354906;19;21142;-59
2023/07/21 04:18:03;;;;;;;0.10;0.10;;;;;;;15.02;64.24;100944.00;7357870;19;20006;-60
2023/07/21 04:20:29;;;;;;;0.10;0.10;;;;;;;14.98;63.83;100939.78;7352760;19;20010;-60
2023/07/21 04:22:55;;;;;;;0.10;0.10;;;;;;;14.99;64.23;100939.72;7356653;19;20010;-59
2023/07/21 04:25:20;;;;;;;0.08;0.08;;;;;;;14.88;64.13;100920.00;7351252;19;20039;-59
2023/07/21 04:27:50;;;;;;;0.00;0.00;;;;;;;14.99;64.19;100938.84;7357132;19;20025;-59
2023/07/21 04:30:18;;;;;;;0.05;0.05;;;;;;;14.98;64.47;100935.38;7354221;19;20608;-60
2023/07/21 04:32:44;;;;;;;0.10;0.10;;;;;;;14.94;64.52;100930.28;7354241;19;20003;-60
2023/07/21 04:35:11;;;;;;;0.10;0.10;;;;;;;14.98;64.22;100931.88;7354678;19;20010;-59
2023/07/21 04:37:38;;;;;;;0.10;0.10;;;;;;;15.00;64.34;100932.66;7354988;19;20013;-59
2023/07/21 04:40:06;;;;;;;0.08;0.08;;;;;;;14.94;64.44;100920.63;7357399;19;20014;-59
2023/07/21 04:42:32;;;;;;;0.03;0.03;;;;;;;15.00;64.52;100935.31;7350964;19;20019;-59
2023/07/21 04:44:58;;;;;;;0.10;0.10;;;;;;;15.00;64.21;100940.56;7353121;19;20067;-60
2023/07/21 04:47:23;;;;;;;0.00;0.00;;;;;;;15.00;64.34;100940.56;7352554;19;20410;-60
2023/07/21 04:49:50;;;;;;;0.00;0.00;;;;;;;15.00;64.63;100937.94;7355798;19;20026;-60
2023/07/21 04:52:16;;;;;;;0.10;0.10;;;;;;;15.01;64.35;100934.41;7349704;19;20545;-59
2023/07/21 04:54:42;;;;;;;0.00;0.00;;;;;;;14.98;64.53;100926.63;7355011;19;21113;-59
2023/07/21 04:57:07;;;;;;;0.00;0.00;;;;;;;14.94;64.62;100915.34;7353162;19;20021;-60
2023/07/21 04:59:33;;;;;;;0.10;0.10;;;;;;;15.01;64.32;100926.53;7355634;19;20010;-59
2023/07/21 05:01:58;;;;;;;0.10;0.10;;;;;;;15.05;64.76;100933.34;7345992;19;20014;-59
2023/07/21 05:04:23;;;;;;;0.00;0.00;;;;;;;15.04;64.71;100931.66;7354666;19;20120;-59
2023/07/21 05:06:49;;;;;;;0.00;0.00;;;;;;;14.99;64.58;100918.66;7351624;19;20021;-59
2023/07/21 05:09:15;;;;;;;0.10;0.10;;;;;;;15.07;64.50;100931.53;7350129;19;20025;-60
2023/07/21 05:11:41;;;;;;;0.00;0.00;;;;;;;14.96;64.30;100910.06;7353356;19;20027;-60
2023/07/21 05:14:07;;;;;;;0.00;0.00;;;;;;;15.10;64.71;100936.69;7350430;19;20011;-60
2023/07/21 05:16:35;;;;;;;0.10;0.10;;;;;;;15.12;64.76;100934.00;7351853;19;20025;-59
2023/07/21 05:19:00;;;;;;;;;;;;;;;15.18;62.42;100934.63;7337752;19;20669;-60
2023/07/21 05:21:26;;;;;;;0.10;0.10;;;;;;;15.15;64.70;100939.13;7353655;19;19918;-59
2023/07/21 05:23:51;;;;;;;0.00;0.00;;;;;;;15.16;64.85;100941.72;7352274;19;20017;-59
2023/07/21 05:26:17;;;;;;;0.00;0.00;;;;;;;15.16;64.49;100939.09;7348621;19;20014;-59
2023/07/21 05:28:42;;;;;;;0.00;0.00;;;;;;;15.16;64.41;100936.47;7353923;19;20038;-59
2023/07/21 05:31:17;;;;;;;0.00;0.00;;;;;;;15.20;64.73;100938.03;7349415;19;20042;-59
2023/07/21 05:33:43;;;;;;;0.10;0.10;;;;;;;15.21;64.56;100933.66;7352288;19;20018;-59
2023/07/21 05:36:10;;;;;;;0.10;0.10;;;;;;;15.21;65.10;100939.78;7351060;19;20006;-59
2023/07/21 05:38:37;;;;;;;0.10;0.10;;;;;;;15.23;64.88;100939.72;7348084;19;20121;-60
2023/07/21 05:41:03;;;;;;;0.00;0.00;;;;;;;15.24;65.12;100939.66;7351931;19;20022;-61
2023/07/21 05:43:29;;;;;;;0.00;0.00;;;;;;;15.26;65.18;100937.84;7352150;19;20595;-59
2023/07/21 05:45:54;;;;;;;0.05;0.05;;;;;;;15.28;64.91;100946.50;7351546;19;20031;-60
2023/07/21 05:48:22;;;;;;;0.00;0.00;;;;;;;15.30;65.16;100934.13;7346512;19;20010;-59
2023/07/21 05:50:47;;;;;;;0.10;0.10;;;;;;;15.32;65.25;100939.38;7351818;19;20010;-60
2023/07/21 05:53:14;;;;;;;0.00;0.00;;;;;;;15.34;64.78;100929.63;7351518;19;20495;-60
2023/07/21 05:55:42;;;;;;;0.08;0.08;;;;;;;15.39;64.42;100932.94;7354995;19;20006;-60
2023/07/21 05:58:08;;;;;;;0.10;0.10;;;;;;;15.39;65.04;100934.72;7349819;19;20054;-59
2023/07/21 06:00:38;;;;;;;0.05;0.05;;;;;;;15.43;64.91;100938.94;7360363;19;20006;-59
2023/07/21 06:03:05;;;;;;;0.10;0.10;;;;;;;15.43;64.93;100933.69;7359382;19;20014;-59
2023/07/21 06:05:31;;;;;;;0.10;0.10;;;;;;;15.45;65.02;100937.09;7357169;19;20030;-60
2023/07/21 06:07:56;;;;;;;0.10;0.10;;;;;;;15.46;64.90;100933.53;7360553;19;20025;-59
2023/07/21 06:10:22;;;;;;;0.00;0.00;;;;;;;15.47;64.81;100938.78;7359481;19;20038;-60
2023/07/21 06:12:57;;;;;;;0.00;0.00;;;;;;;15.48;65.02;100929.09;7353824;19;20007;-60
2023/07/21 06:15:24;;;;;;;0.10;0.10;;;;;;;15.50;65.29;100928.09;7355602;19;20476;-60
2023/07/21 06:17:50;;;;;;;0.10;0.10;;;;;;;15.53;64.91;100927.13;7354195;19;20034;-59
2023/07/21 06:20:15;;;;;;;0.10;0.10;;;;;;;15.54;65.19;100931.47;7361340;19;20007;-60
2023/07/21 06:22:47;;;;;;;0.00;0.00;;;;;;;15.55;65.23;100926.16;7358165;19;20014;-60
2023/07/21 06:25:12;;;;;;;0.08;0.08;;;;;;;15.57;65.50;100931.38;7360315;19;20273;-60
2023/07/21 06:27:37;;;;;;;0.08;0.08;;;;;;;15.60;65.43;100935.66;7359204;19;20464;-59
2023/07/21 06:30:03;;;;;;;0.10;0.10;;;;;;;15.60;65.26;100933.00;7356895;19;20014;-59
2023/07/21 06:32:29;;;;;;;0.00;0.00;;;;;;;15.63;65.46;100936.41;7355955;19;20002;-60
2023/07/21 06:34:54;;;;;;;0.08;0.08;;;;;;;15.66;65.29;100938.06;7359430;19;20015;-59
2023/07/21 06:37:19;;;;;;;0.05;0.05;;;;;;;15.65;65.33;100931.94;7358387;19;20010;-60
2023/07/21 06:39:48;;;;;;;0.10;0.10;;;;;;;15.64;65.61;100927.59;7359111;19;20545;-59
2023/07/21 06:42:14;;;;;;;0.10;0.10;;;;;;;15.70;65.55;100937.88;7353860;19;20006;-60
2023/07/21 06:44:40;;;;;;;0.00;0.00;;;;;;;15.71;65.46;100929.09;7360423;19;20024;-60
2023/07/21 06:47:08;;;;;;;0.10;0.10;;;;;;;15.76;65.10;100936.78;7355003;19;20017;-60
2023/07/21 06:49:33;;;;;;;0.00;0.00;;;;;;;15.80;65.46;100927.84;7357066;19;20010;-59
2023/07/21 06:51:59;;;;;;;0.00;0.00;;;;;;;15.82;65.16;100921.59;7356790;19;20568;-60
2023/07/21 06:54:29;;;;;;;0.00;0.00;;;;;;;15.76;65.66;100911.31;7354531;19;20009;-59
2023/07/21 06:56:54;;;;;;;0.00;0.00;;;;;;;15.88;65.35;100923.13;7353886;19;20059;-59
2023/07/21 06:59:20;;;;;;;0.10;0.10;;;;;;;15.94;65.60;100929.91;7359605;19;20015;-59
2023/07/21 07:01:48;;;;;;;0.00;0.00;;;;;;;15.61;65.20;100861.88;7354957;19;21038;-59
2023/07/21 07:04:14;;;;;;;0.05;0.05;;;;;;;16.00;65.63;100924.38;7359987;19;20384;-60
2023/07/21 07:06:39;;;;;;;0.00;0.00;;;;;;;16.06;65.42;100932.03;7354761;19;20445;-60
2023/07/21 07:09:04;;;;;;;0.10;0.10;;;;;;;16.09;65.53;100934.53;7359794;19;20011;-60
2023/07/21 07:11:32;;;;;;;0.10;0.10;;;;;;;16.14;65.45;100932.56;7353745;19;20010;-60
2023/07/21 07:14:00;;;;;;;0.10;0.10;;;;;;;16.08;64.75;100917.03;7359354;19;20055;-59
2023/07/21 07:16:26;;;;;;;0.10;0.10;;;;;;;16.08;65.19;100906.50;7353805;19;20512;-60
2023/07/21 07:18:51;;;;;;;0.10;0.10;;;;;;;16.23;65.00;100926.06;7359132;19;20044;-60
2023/07/21 07:21:16;;;;;;;0.00;0.00;;;;;;;16.26;65.08;100932.03;7356861;19;20340;-59
2023/07/21 07:23:42;;;;;;;0.10;0.10;;;;;;;16.30;65.53;100932.78;7353811;19;20035;-59
2023/07/21 07:26:07;;;;;;;0.10;0.10;;;;;;;16.26;65.52;100916.22;7351837;19;20111;-64
2023/07/21 07:28:33;;;;;;;0.10;0.10;;;;;;;16.39;65.26;100923.63;7353936;19;20026;-66
2023/07/21 07:31:06;;;;;;;0.10;0.10;;;;;;;16.46;64.88;100922.41;7355839;19;20026;-64
2023/07/21 07:33:32;;;;;;;0.10;0.10;;;;;;;16.49;65.18;100927.56;7349643;19;20014;-64
2023/07/21 07:35:59;;;;;;;0.00;0.00;;;;;;;16.55;64.99;100927.31;7353518;19;20074;-64
2023/07/21 07:38:27;;;;;;;0.10;0.10;;;;;;;16.54;65.30;100915.91;7357699;19;20018;-64
2023/07/21 07:40:52;;;;;;;;;;;;;;;16.76;63.54;100923.75;7356834;19;20395;-64
2023/07/21 07:43:23;;;;;;;0.00;0.00;;;;;;;16.82;64.69;100926.09;7351428;19;19974;-64
2023/07/21 07:45:49;;;;;;;0.00;0.00;;;;;;;16.85;64.64;100925.97;7356459;19;20019;-64
2023/07/21 07:48:15;;;;;;;0.10;0.10;;;;;;;16.92;64.72;100920.41;7357905;19;20018;-64
2023/07/21 07:50:42;;;;;;;0.10;0.10;;;;;;;17.00;64.96;100921.78;7356116;19;20013;-64
2023/07/21 07:53:08;;;;;;;0.10;0.10;;;;;;;17.08;64.88;100926.69;7355012;19;21391;-64
2023/07/21 07:55:40;;;;;;;0.00;0.00;;;;;;;17.19;63.85;100920.94;7357119;19;20020;-64
2023/07/21 07:58:06;;;;;;;0.00;0.00;;;;;;;17.21;64.14;100922.56;7351185;19;20022;-64
2023/07/21 08:00:35;;;;;;;0.00;0.00;;;;;;;17.27;64.12;100919.63;7357125;19;20753;-64
2023/07/21 08:03:06;;;;;;;0.10;0.10;;;;;;;17.31;64.21;100923.00;7351173;19;20042;-64
2023/07/21 08:05:34;;;;;;;0.10;0.10;;;;;;;17.38;63.98;100919.97;7355979;19;20007;-64
2023/07/21 08:08:00;;;;;;;0.10;0.10;;;;;;;17.48;63.82;100919.53;7333683;19;20045;-65
2023/07/21 08:10:32;;;;;;;0.05;0.05;;;;;;;17.46;63.42;100906.41;7350255;19;20626;-64
2023/07/21 08:12:59;;;;;;;0.10;0.10;;;;;;;17.63;63.63;100924.09;7355036;19;20056;-64
2023/07/21 08:15:25;;;;;;;0.10;0.10;;;;;;;17.68;63.65;100922.06;7353931;19;20022;-64
2023/07/21 08:17:51;;;;;;;0.08;0.08;;;;;;;17.75;63.26;100915.63;7352951;19;20006;-64
2023/07/21 08:20:20;;;;;;;0.00;0.00;;;;;;;17.84;63.02;100912.53;7357192;19;20014;-64
2023/07/21 08:22:46;;;;;;;0.10;0.10;;;;;;;17.91;63.02;100912.22;7357691;19;20470;-64
2023/07/21 08:25:12;;;;;;;0.10;0.10;;;;;;;17.95;62.81;100908.50;7352819;19;20010;-64
2023/07/21 08:27:37;;;;;;;0.00;0.00;;;;;;;17.91;62.68;100885.78;7352745;19;20036;-64
2023/07/21 08:30:04;;;;;;;0.10;0.10;;;;;;;18.18;62.28;100916.09;7355310;19;20931;-64
2023/07/21 08:32:29;;;;;;;0.10;0.10;;;;;;;18.11;62.64;100888.28;7350608;19;20022;-60
2023/07/21 08:34:57;;;;;;;0.05;0.05;;;;;;;18.38;62.50;100918.56;7361585;19;20014;-64
2023/07/21 08:37:23;;;;;;;0.10;0.10;;;;;;;18.47;62.31;100911.09;7357639;19;20018;-64
2023/07/21 08:39:49;;;;;;;0.10;0.10;;;;;;;18.58;61.68;100916.69;7355859;19;20045;-64
2023/07/21 08:42:14;;;;;;;0.00;0.00;;;;;;;18.67;60.97;100918.84;7355860;19;20015;-64
2023/07/21 08:44:40;;;;;;;0.10;0.10;;;;;;;18.61;60.63;100895.38;7356645;19;20450;-64
2023/07/21 08:47:06;;;;;;;0.10;0.10;;;;;;;18.63;60.23;100901.44;7352577;19;20478;-64
2023/07/21 08:49:33;;;;;;;0.10;0.10;;;;;;;18.75;59.79;100907.88;7354919;19;20013;-65
2023/07/21 08:51:58;;;;;;;0.08;0.08;;;;;;;18.86;59.94;100927.56;7354272;19;20014;-64
2023/07/21 08:54:24;;;;;;;0.00;0.00;;;;;;;18.89;59.60;100930.03;7339007;19;20506;-64
2023/07/21 08:57:00;;;;;;;;;;;;;;;;;;;;;
2023/07/21 08:59:26;;;;;;;0.10;0.10;;;;;;;18.96;59.69;100927.03;7341275;19;20608;-64
2023/07/21 09:01:51;;;;;;;0.10;0.10;;;;;;;18.98;59.30;100923.38;7346247;19;20454;-64
2023/07/21 09:04:23;;;;;;;0.00;0.00;;;;;;;19.03;59.12;100915.19;7343662;19;20010;-64
2023/07/21 09:06:54;;;;;;;0.00;0.00;;;;;;;19.11;59.40;100928.84;7342074;19;20053;-64
2023/07/21 09:09:21;;;;;;;0.10;0.10;;;;;;;19.03;59.19;100917.84;7342432;19;21198;-64
2023/07/21 09:11:48;;;;;;;0.10;0.10;;;;;;;19.00;58.86;100916.22;7344579;19;20021;-65
2023/07/21 09:14:15;;;;;;;0.10;0.10;;;;;;;19.17;58.84;100941.78;7343348;19;20041;-64
2023/07/21 09:16:43;;;;;;;0.10;0.10;;;;;;;19.18;58.05;100930.25;7330830;19;20977;-64
2023/07/21 09:19:09;;;;;;;0.10;0.10;;;;;;;19.19;58.27;100926.66;7344142;19;20014;-64
2023/07/21 09:21:36;;;;;;;0.10;0.10;;;;;;;19.19;58.31;100926.66;7344662;19;20015;-64
2023/07/21 09:24:02;;;;;;;0.10;0.10;;;;;;;19.20;58.44;100931.00;7346012;19;20774;-65
2023/07/21 09:26:28;;;;;;;0.00;0.00;;;;;;;19.13;58.19;100919.06;7344418;19;20459;-65
2023/07/21 09:28:53;;;;;;;0.10;0.10;;;;;;;19.23;58.45;100930.84;7344410;19;20018;-64
2023/07/21 09:31:27;;;;;;;0.03;0.03;;;;;;;19.33;58.31;100924.09;7344267;19;20581;-64
2023/07/21 09:33:53;;;;;;;0.10;0.10;;;;;;;19.34;58.44;100931.09;7345402;19;20110;-65
2023/07/21 09:36:18;;;;;;;0.00;0.00;;;;;;;19.41;58.01;100935.13;7344781;19;20048;-64
2023/07/21 09:38:44;;;;;;;0.10;0.10;;;;;;;19.43;57.87;100925.28;7339955;19;20018;-65
2023/07/21 09:41:11;;;;;;;0.00;0.00;;;;;;;19.50;57.58;100914.34;7345901;19;20010;-65
2023/07/21 09:43:37;;;;;;;;;;;;;;;19.77;58.81;100934.03;7342575;19;20018;-64
2023/07/21 09:46:05;;;;;;;0.05;0.05;;;;;;;19.79;57.15;100926.84;7345569;19;19919;-65
2023/07/21 09:48:31;;;;;;;0.10;0.10;;;;;;;19.90;56.41;100913.81;7323731;19;20818;-65
2023/07/21 09:50:59;;;;;;;0.10;0.10;;;;;;;20.03;57.08;100908.66;7325957;19;20011;-65
2023/07/21 09:53:30;;;;;;;0.03;0.03;;;;;;;20.21;56.95;100917.31;7345173;19;20533;-65
2023/07/21 09:55:57;;;;;;;0.10;0.10;;;;;;;20.34;56.49;100907.69;7342078;19;20029;-65
2023/07/21 09:58:25;;;;;;;0.10;0.10;;;;;;;20.56;55.86;100906.41;7345496;19;20990;-64
2023/07/21 10:00:53;;;;;;;0.00;0.00;;;;;;;20.73;56.17;100915.06;7342521;19;20091;-65
2023/07/21 10:03:21;;;;;;;0.10;0.10;;;;;;;20.92;54.56;100909.44;7343456;19;20026;-64
2023/07/21 10:05:47;;;;;;;0.10;0.10;;;;;;;21.10;54.38;100906.59;7334793;19;20017;-65
2023/07/21 10:08:15;;;;;;;0.10;0.10;;;;;;;21.25;53.54;100910.94;7339862;19;20015;-59
2023/07/21 10:10:41;;;;;;;0.10;0.10;;;;;;;21.43;53.31;100909.75;7322777;19;20018;-61
2023/07/21 10:13:10;;;;;;;0.10;0.10;;;;;;;21.64;53.09;100914.63;7337201;19;20025;-61
2023/07/21 10:15:40;;;;;;;0.03;0.03;;;;;;;21.81;52.07;100911.72;7333772;19;20010;-58
2023/07/21 10:18:11;;;;;;;0.10;0.10;;;;;;;22.05;53.24;100906.59;7322855;19;20011;-58
2023/07/21 10:20:39;;;;;;;0.10;0.10;;;;;;;22.29;53.00;100906.75;7339326;19;20267;-58
2023/07/21 10:23:05;;;;;;;0.10;0.10;;;;;;;22.51;52.94;100909.63;7325900;19;20015;-60
2023/07/21 10:25:51;;;;;;;0.10;0.10;;;;;;;22.76;54.70;100868.00;7339499;19;20006;-61
2023/07/21 10:28:46;;;;;;;0.10;0.10;;;;;;;23.36;53.07;100907.16;7338634;19;20014;-61
2023/07/21 10:31:21;;;;;;;0.10;0.10;;;;;;;23.69;52.29;100908.38;7240564;19;2004441;-60
2023/07/21 10:34:14;;;;;;;0.10;0.10;;;;;;;24.03;52.83;100896.88;7342117;19;20670;-60
2023/07/21 10:36:51;;;;;;;0.08;0.08;;;;;;;24.30;51.44;100901.03;7240638;19;2004367;-60
2023/07/21 10:39:28;;;;;;;0.10;0.10;;;;;;;24.45;48.00;100889.22;7340690;19;20003;-60
2023/07/21 10:42:03;;;;;;;0.00;0.00;;;;;;;24.72;49.37;100893.34;7344492;19;20014;-61
2023/07/21 10:44:44;;;;;;;0.00;0.00;;;;;;;25.07;50.13;100888.75;7348846;19;20021;-60
2023/07/21 10:47:15;;;;;;;0.10;0.10;;;;;;;25.28;47.39;100885.31;7345826;19;20014;-61
2023/07/21 10:49:42;;;;;;;0.00;0.00;;;;;;;25.41;46.75;100885.16;7346906;19;20024;-61
2023/07/21 10:52:08;;;;;;;0.00;0.00;;;;;;;25.68;46.04;100898.06;7343130;19;20023;-60
2023/07/21 10:54:35;;;;;;;0.10;0.10;;;;;;;25.88;45.37;100892.78;7346170;19;20022;-61
2023/07/21 10:57:01;;;;;;;0.10;0.10;;;;;;;26.02;43.73;100891.63;7347454;19;20895;-60
2023/07/21 10:59:30;;;;;;;0.10;0.10;;;;;;;26.14;43.33;100885.22;7348485;19;20726;-60
2023/07/21 11:01:56;;;;;;;0.10;0.10;;;;;;;26.13;42.21;100882.69;7343406;19;20014;-60
2023/07/21 11:04:23;;;;;;;0.10;0.10;;;;;;;26.14;42.73;100890.56;7347703;19;20879;-60
2023/07/21 11:06:57;;;;;;;0.10;0.10;;;;;;;26.12;44.16;100887.19;7342040;19;20026;-60
2023/07/21 11:09:23;;;;;;;0.10;0.10;;;;;;;25.95;42.80;100895.78;7347585;19;20026;-60
2023/07/21 11:11:57;;;;;;;0.10;0.10;;;;;;;25.85;42.94;100878.81;7347251;19;20019;-60
2023/07/21 11:14:24;;;;;;;0.10;0.10;;;;;;;25.93;42.39;100884.38;7347186;19;20569;-60
2023/07/21 11:16:59;;;;;;;0.10;0.10;;;;;;;26.02;44.48;100880.94;7348121;19;20465;-60
2023/07/21 11:19:27;;;;;;;0.10;0.10;;;;;;;26.15;42.26;100886.06;7348218;19;20725;-60
2023/07/21 11:21:53;;;;;;;0.10;0.10;;;;;;;26.39;42.77;100878.63;7347986;19;20855;-61
2023/07/21 11:24:23;;;;;;;0.10;0.10;;;;;;;26.71;41.49;100887.53;7345691;19;20651;-61
2023/07/21 11:27:05;;;;;;;0.10;0.10;;;;;;;27.01;42.90;100874.09;7342644;19;20014;-61